Time;durP1;ratioP1;P1;durP2;ratioP2;P2;SDS_P1;SDS_P2;PMS_P1;PMS_P2;Temp;Humidity;BMP_temperature;BMP_pressure;BME280_temperature;BME280_humidity;BME280_pressure;Samples;Min_cycle;Max_cycle;Signal;HPM_P1;HPM_P2
2023/12/20 00:00:54;;;;;;;2.50;2.30;;;;;;;;;;5050610;28;20208;-92
2023/12/20 00:03:22;;;;;;;2.47;2.27;;;;;;;;;;5034983;28;20213;-91
2023/12/20 00:05:49;;;;;;;2.13;1.93;;;;;;;;;;5053417;28;20290;-92
2023/12/20 00:08:18;;;;;;;2.60;2.40;;;;;;;;;;5053421;28;20214;-92
2023/12/20 00:10:45;;;;;;;2.87;2.40;;;;;;;;;;5049673;28;20282;-91
2023/12/20 00:13:12;;;;;;;2.40;2.30;;;;;;;;;;5052626;28;20293;-91
2023/12/20 00:15:40;;;;;;;2.50;2.30;;;;;;;;;;5052133;28;20350;-92
2023/12/20 00:18:07;;;;;;;2.30;2.10;;;;;;;;;;5045044;28;20223;-92
2023/12/20 00:20:34;;;;;;;2.13;2.03;;;;;;;;;;5043258;28;20208;-92
2023/12/20 00:23:02;;;;;;;2.77;2.57;;;;;;;;;;5044476;28;20203;-92
2023/12/20 00:25:31;;;;;;;3.40;2.80;;;;;;;;;;5045141;28;20203;-91
2023/12/20 00:27:58;;;;;;;2.53;2.30;;;;;;;;;;5039234;28;20215;-92
2023/12/20 00:30:25;;;;;;;3.03;2.70;;;;;;;;;;5050244;28;20234;-92
2023/12/20 00:32:52;;;;;;;2.60;2.40;;;;;;;;;;5046156;28;20204;-92
2023/12/20 00:35:20;;;;;;;2.57;2.37;;;;;;;;;;5038073;28;20393;-92
2023/12/20 00:37:47;;;;;;;2.50;2.30;;;;;;;;;;5042529;28;20512;-92
2023/12/20 00:40:15;;;;;;;2.13;2.03;;;;;;;;;;5042226;28;20223;-91
2023/12/20 00:42:43;;;;;;;2.63;2.43;;;;;;;;;;5044586;28;20215;-91
2023/12/20 00:45:11;;;;;;;5.33;2.70;;;;;;;;;;5049426;28;20244;-92
2023/12/20 00:47:38;;;;;;;2.80;2.60;;;;;;;;;;5050478;28;20230;-93
2023/12/20 00:50:06;;;;;;;3.10;2.57;;;;;;;;;;5050390;28;20200;-92
2023/12/20 00:52:33;;;;;;;4.90;2.60;;;;;;;;;;5041251;28;20212;-91
2023/12/20 00:55:00;;;;;;;2.70;2.50;;;;;;;;;;5041965;28;20213;-92
2023/12/20 00:57:27;;;;;;;3.13;2.70;;;;;;;;;;5047619;28;20250;-91
2023/12/20 00:59:56;;;;;;;2.70;2.50;;;;;;;;;;5047823;28;20223;-91
2023/12/20 01:02:23;;;;;;;2.70;2.50;;;;;;;;;;5041775;28;20223;-92
2023/12/20 01:04:50;;;;;;;2.40;2.30;;;;;;;;;;5036856;28;20195;-92
2023/12/20 01:07:18;;;;;;;2.63;2.40;;;;;;;;;;5050782;28;20294;-92
2023/12/20 01:09:45;;;;;;;2.43;2.23;;;;;;;;;;5047278;28;20203;-92
2023/12/20 01:12:13;;;;;;;2.27;2.17;;;;;;;;;;5039676;28;20299;-92
2023/12/20 01:14:40;;;;;;;2.23;2.07;;;;;;;;;;5046992;28;20275;-91
2023/12/20 01:17:09;;;;;;;2.53;2.33;;;;;;;;;;5046140;28;20541;-92
2023/12/20 01:19:36;;;;;;;2.27;2.10;;;;;;;;;;5048889;28;20340;-91
2023/12/20 01:22:03;;;;;;;2.60;2.40;;;;;;;;;;5044390;28;20271;-92
2023/12/20 01:24:31;;;;;;;2.70;2.50;;;;;;;;;;5044984;28;20211;-91
2023/12/20 01:26:58;;;;;;;2.40;2.20;;;;;;;;;;5048316;28;20208;-92
2023/12/20 01:29:25;;;;;;;2.07;1.97;;;;;;;;;;5052130;28;20239;-92
2023/12/20 01:31:52;;;;;;;2.10;2.00;;;;;;;;;;5047345;28;20213;-92
2023/12/20 01:34:21;;;;;;;2.47;2.27;;;;;;;;;;5050293;28;20215;-92
2023/12/20 01:36:48;;;;;;;2.50;2.30;;;;;;;;;;5050559;28;20210;-91
2023/12/20 01:39:15;;;;;;;2.43;2.27;;;;;;;;;;5052820;28;20305;-92
2023/12/20 01:41:42;;;;;;;2.40;2.20;;;;;;;;;;5051640;28;20211;-92
2023/12/20 01:44:10;;;;;;;2.40;2.20;;;;;;;;;;5046322;28;20246;-93
2023/12/20 01:46:37;;;;;;;2.83;2.63;;;;;;;;;;5046099;28;20223;-92
2023/12/20 01:49:04;;;;;;;2.00;1.90;;;;;;;;;;5044742;28;20271;-93
2023/12/20 01:51:33;;;;;;;2.60;2.40;;;;;;;;;;5047519;28;20277;-93
2023/12/20 01:54:01;;;;;;;2.50;2.30;;;;;;;;;;5046405;28;20303;-92
2023/12/20 01:56:29;;;;;;;2.40;2.20;;;;;;;;;;5046793;28;20206;-93
2023/12/20 01:58:57;;;;;;;2.33;2.23;;;;;;;;;;5045132;28;20255;-90
2023/12/20 02:01:24;;;;;;;2.57;2.37;;;;;;;;;;5045111;28;20223;-92
2023/12/20 02:03:52;;;;;;;2.70;2.50;;;;;;;;;;5047979;28;20319;-94
2023/12/20 02:06:20;;;;;;;2.90;2.70;;;;;;;;;;5048182;28;20239;-92
2023/12/20 02:08:49;;;;;;;2.60;2.50;;;;;;;;;;5057572;28;20223;-92
2023/12/20 02:11:16;;;;;;;3.00;2.73;;;;;;;;;;5049703;28;20223;-92
2023/12/20 02:13:43;;;;;;;2.60;2.40;;;;;;;;;;5046701;28;20216;-92
2023/12/20 02:16:11;;;;;;;3.00;2.70;;;;;;;;;;5046120;28;20249;-87
2023/12/20 02:18:39;;;;;;;2.87;2.67;;;;;;;;;;5052268;28;20318;-87
2023/12/20 02:21:06;;;;;;;3.30;3.00;;;;;;;;;;5050803;28;20294;-87
2023/12/20 02:23:35;;;;;;;2.80;2.60;;;;;;;;;;5050370;28;20235;-87
2023/12/20 02:26:02;;;;;;;2.80;2.60;;;;;;;;;;5051063;28;20284;-87
2023/12/20 02:28:29;;;;;;;2.50;2.30;;;;;;;;;;5053146;28;20212;-87
2023/12/20 02:30:56;;;;;;;2.77;2.57;;;;;;;;;;5049981;28;20312;-87
2023/12/20 02:33:24;;;;;;;2.40;2.20;;;;;;;;;;5055577;28;20218;-88
2023/12/20 02:35:52;;;;;;;2.57;2.37;;;;;;;;;;5048809;28;20297;-87
2023/12/20 02:38:19;;;;;;;2.77;2.57;;;;;;;;;;5048343;28;20250;-88
2023/12/20 02:40:48;;;;;;;2.63;2.43;;;;;;;;;;5053543;28;20207;-87
2023/12/20 02:43:15;;;;;;;3.10;2.90;;;;;;;;;;5048194;28;20265;-88
2023/12/20 02:45:42;;;;;;;2.90;2.70;;;;;;;;;;5047119;28;20203;-88
2023/12/20 02:48:09;;;;;;;2.60;2.40;;;;;;;;;;5044953;28;20245;-88
2023/12/20 02:50:37;;;;;;;2.50;2.30;;;;;;;;;;5045837;28;20203;-89
2023/12/20 02:53:04;;;;;;;2.70;2.50;;;;;;;;;;5045969;28;20294;-88
2023/12/20 02:55:31;;;;;;;2.27;2.17;;;;;;;;;;5044991;28;20290;-88
2023/12/20 02:58:00;;;;;;;2.30;2.20;;;;;;;;;;5045674;28;20209;-88
2023/12/20 03:00:27;;;;;;;2.73;2.53;;;;;;;;;;5047345;28;20235;-88
2023/12/20 03:02:54;;;;;;;2.63;2.43;;;;;;;;;;5056041;28;20199;-87
2023/12/20 03:05:21;;;;;;;3.20;3.00;;;;;;;;;;5047438;28;20208;-87
2023/12/20 03:07:49;;;;;;;2.77;2.57;;;;;;;;;;5043924;28;20219;-87
2023/12/20 03:10:16;;;;;;;2.60;2.40;;;;;;;;;;5045759;28;20238;-89
2023/12/20 03:12:43;;;;;;;2.50;2.30;;;;;;;;;;5047255;28;20250;-88
2023/12/20 03:15:12;;;;;;;2.87;2.60;;;;;;;;;;5047857;28;20218;-87
2023/12/20 03:17:39;;;;;;;3.00;2.70;;;;;;;;;;5047955;28;20355;-89
2023/12/20 03:20:07;;;;;;;3.10;2.80;;;;;;;;;;5045200;28;20230;-88
2023/12/20 03:22:35;;;;;;;3.30;2.70;;;;;;;;;;5048469;28;20199;-88
2023/12/20 03:25:02;;;;;;;3.07;2.83;;;;;;;;;;5049491;28;20207;-87
2023/12/20 03:27:30;;;;;;;3.17;2.97;;;;;;;;;;5045385;28;20212;-88
2023/12/20 03:29:57;;;;;;;4.30;2.70;;;;;;;;;;5048373;28;20290;-89
2023/12/20 03:32:25;;;;;;;3.50;2.60;;;;;;;;;;5046215;28;20213;-87
2023/12/20 03:34:53;;;;;;;2.87;2.67;;;;;;;;;;5050432;28;20213;-87
2023/12/20 03:37:20;;;;;;;3.57;2.70;;;;;;;;;;5048332;28;20296;-88
2023/12/20 03:39:47;;;;;;;3.23;2.50;;;;;;;;;;5051481;28;20219;-87
2023/12/20 03:42:14;;;;;;;2.43;2.23;;;;;;;;;;5051766;28;20287;-87
2023/12/20 03:44:42;;;;;;;3.17;2.40;;;;;;;;;;5044442;28;20214;-88
2023/12/20 03:47:09;;;;;;;3.00;2.30;;;;;;;;;;5049815;28;20294;-87
2023/12/20 03:49:38;;;;;;;3.07;2.03;;;;;;;;;;5051163;28;20211;-88
2023/12/20 03:52:06;;;;;;;2.30;1.90;;;;;;;;;;5045963;28;20218;-88
2023/12/20 03:54:33;;;;;;;3.70;2.30;;;;;;;;;;5046626;28;20203;-88
2023/12/20 03:57:00;;;;;;;4.93;2.03;;;;;;;;;;5050547;28;20208;-87
2023/12/20 03:59:27;;;;;;;3.97;2.00;;;;;;;;;;5051729;28;20223;-88
2023/12/20 04:01:54;;;;;;;4.27;2.07;;;;;;;;;;5056359;28;20211;-87
2023/12/20 04:04:21;;;;;;;3.60;1.90;;;;;;;;;;5054892;28;20286;-89
2023/12/20 04:06:50;;;;;;;3.43;2.20;;;;;;;;;;5051457;28;20307;-87
2023/12/20 04:09:17;;;;;;;3.70;2.20;;;;;;;;;;5049687;28;20203;-87
2023/12/20 04:11:44;;;;;;;3.07;2.33;;;;;;;;;;5051340;28;20242;-87
2023/12/20 04:14:12;;;;;;;6.07;2.77;;;;;;;;;;5045720;28;20235;-88
2023/12/20 04:16:39;;;;;;;5.87;2.53;;;;;;;;;;5045279;28;20227;-88
2023/12/20 04:19:06;;;;;;;5.27;3.00;;;;;;;;;;5044188;28;20304;-87
2023/12/20 04:21:34;;;;;;;4.60;2.73;;;;;;;;;;5046947;28;20197;-87
2023/12/20 04:24:02;;;;;;;5.63;2.73;;;;;;;;;;5045929;28;20216;-88
2023/12/20 04:26:30;;;;;;;4.90;2.53;;;;;;;;;;5045984;28;20208;-88
2023/12/20 04:28:57;;;;;;;4.80;2.80;;;;;;;;;;5045803;28;20214;-87
2023/12/20 04:31:24;;;;;;;5.90;2.20;;;;;;;;;;5049255;28;20285;-88
2023/12/20 04:33:51;;;;;;;5.27;2.40;;;;;;;;;;5046792;28;20315;-87
2023/12/20 04:36:19;;;;;;;5.80;2.20;;;;;;;;;;5045956;28;20290;-93
2023/12/20 04:38:46;;;;;;;5.43;2.20;;;;;;;;;;5043921;28;20207;-93
2023/12/20 04:41:15;;;;;;;4.83;2.30;;;;;;;;;;5045315;28;20227;-92
2023/12/20 04:43:42;;;;;;;3.97;1.97;;;;;;;;;;5044319;28;20207;-92
2023/12/20 04:46:10;;;;;;;4.23;2.23;;;;;;;;;;5048441;28;20253;-92
2023/12/20 04:48:37;;;;;;;5.60;2.37;;;;;;;;;;5053480;28;20227;-92
2023/12/20 04:51:05;;;;;;;6.23;2.33;;;;;;;;;;5044085;28;20207;-92
2023/12/20 04:53:33;;;;;;;3.70;2.07;;;;;;;;;;5045493;28;20241;-92
2023/12/20 04:56:00;;;;;;;4.40;1.70;;;;;;;;;;5047957;28;20280;-93
2023/12/20 04:58:28;;;;;;;4.23;1.90;;;;;;;;;;5052081;28;20203;-92
2023/12/20 05:00:56;;;;;;;6.37;1.93;;;;;;;;;;5049263;28;20255;-92
2023/12/20 05:03:23;;;;;;;4.67;1.93;;;;;;;;;;5046555;28;20247;-92
2023/12/20 05:05:50;;;;;;;7.67;2.03;;;;;;;;;;5045916;28;20288;-91
2023/12/20 05:08:18;;;;;;;5.43;2.23;;;;;;;;;;5042073;28;20203;-93
2023/12/20 05:10:47;;;;;;;4.20;1.83;;;;;;;;;;5050949;28;20234;-92
2023/12/20 05:13:15;;;;;;;6.53;2.10;;;;;;;;;;5048908;28;20238;-92
2023/12/20 05:15:45;;;;;;;5.07;1.90;;;;;;;;;;5052475;28;20295;-92
2023/12/20 05:18:14;;;;;;;5.73;1.90;;;;;;;;;;5048054;28;20210;-93
2023/12/20 05:20:42;;;;;;;7.93;3.10;;;;;;;;;;5052526;28;20234;-93
2023/12/20 05:23:11;;;;;;;7.13;3.00;;;;;;;;;;5052688;28;20231;-94
2023/12/20 05:25:42;;;;;;;5.50;2.43;;;;;;;;;;5052459;28;20223;-94
2023/12/20 05:28:10;;;;;;;6.60;2.20;;;;;;;;;;5050255;28;20298;-94
2023/12/20 05:30:39;;;;;;;6.40;1.87;;;;;;;;;;5050897;28;20203;-93
2023/12/20 05:33:09;;;;;;;6.20;2.30;;;;;;;;;;5051144;28;20211;-94
2023/12/20 05:35:36;;;;;;;5.63;1.70;;;;;;;;;;5058157;28;20230;-93
2023/12/20 05:38:05;;;;;;;7.33;1.90;;;;;;;;;;5053862;28;20203;-93
2023/12/20 05:40:34;;;;;;;8.20;2.00;;;;;;;;;;5058051;28;20247;-93
2023/12/20 05:43:03;;;;;;;6.00;1.93;;;;;;;;;;5048719;28;20250;-93
2023/12/20 05:45:31;;;;;;;5.37;2.27;;;;;;;;;;5049251;28;20271;-93
2023/12/20 05:48:00;;;;;;;4.07;2.17;;;;;;;;;;5049642;28;20370;-92
2023/12/20 05:50:29;;;;;;;6.23;1.90;;;;;;;;;;5052300;28;20232;-93
2023/12/20 05:56:06;;;;;;;5.90;1.73;;;;;;;;;;4935240;29;20199;-93
2023/12/20 05:58:34;;;;;;;6.27;2.10;;;;;;;;;;5050652;28;20202;-93
2023/12/20 06:01:09;;;;;;;6.50;1.93;;;;;;;;;;5063401;28;20226;-93
2023/12/20 06:03:40;;;;;;;5.80;2.23;;;;;;;;;;5060871;28;20198;-93
2023/12/20 06:06:10;;;;;;;5.30;2.23;;;;;;;;;;5052301;28;20211;-93
2023/12/20 06:08:38;;;;;;;10.33;2.33;;;;;;;;;;5053978;28;20236;-92
2023/12/20 06:11:06;;;;;;;5.47;1.73;;;;;;;;;;5056589;28;20221;-93
2023/12/20 06:13:35;;;;;;;7.47;2.07;;;;;;;;;;5055417;28;20210;-93
2023/12/20 06:16:07;;;;;;;7.57;2.50;;;;;;;;;;5057293;28;20235;-94
2023/12/20 06:18:36;;;;;;;6.47;2.20;;;;;;;;;;5059132;28;20278;-93
2023/12/20 06:21:07;;;;;;;6.43;2.77;;;;;;;;;;5055727;28;20231;-93
2023/12/20 06:23:35;;;;;;;5.73;1.80;;;;;;;;;;5052739;28;20203;-93
2023/12/20 06:26:03;;;;;;;5.43;2.00;;;;;;;;;;5047381;28;20300;-92
2023/12/20 06:28:30;;;;;;;6.87;2.27;;;;;;;;;;5050622;28;20297;-93
2023/12/20 06:30:57;;;;;;;5.57;2.17;;;;;;;;;;5047409;28;20210;-93
2023/12/20 06:33:29;;;;;;;6.07;2.30;;;;;;;;;;5032099;28;20207;-93
2023/12/20 06:36:14;;;;;;;3.43;1.80;;;;;;;;;;5063186;27;20591;-68
2023/12/20 06:38:42;;;;;;;5.27;1.80;;;;;;;;;;5068002;28;20231;-68
2023/12/20 06:41:09;;;;;;;7.10;2.93;;;;;;;;;;5060060;28;20209;-68
2023/12/20 06:43:37;;;;;;;6.57;2.20;;;;;;;;;;5065814;28;20214;-68
2023/12/20 06:46:04;;;;;;;6.80;2.30;;;;;;;;;;5075137;28;20289;-68
2023/12/20 06:48:31;;;;;;;7.87;2.57;;;;;;;;;;5064724;28;20198;-68
2023/12/20 06:51:00;;;;;;;5.60;2.60;;;;;;;;;;5068387;28;20211;-67
2023/12/20 06:53:28;;;;;;;6.53;2.77;;;;;;;;;;5062653;28;20289;-68
2023/12/20 06:55:56;;;;;;;8.00;2.80;;;;;;;;;;5066325;28;20215;-68
2023/12/20 06:58:23;;;;;;;6.53;2.80;;;;;;;;;;5075507;28;20268;-68
2023/12/20 07:00:52;;;;;;;8.27;2.40;;;;;;;;;;5064596;28;20203;-68
2023/12/20 07:03:20;;;;;;;7.03;2.73;;;;;;;;;;5064783;28;20264;-68
2023/12/20 07:05:47;;;;;;;6.40;2.87;;;;;;;;;;5066567;28;20229;-68
2023/12/20 07:08:15;;;;;;;5.40;2.40;;;;;;;;;;5065350;28;20294;-69
2023/12/20 07:10:44;;;;;;;8.33;2.53;;;;;;;;;;5067230;28;20272;-67
2023/12/20 07:13:12;;;;;;;4.67;2.20;;;;;;;;;;5066753;28;20329;-62
2023/12/20 07:15:39;;;;;;;8.37;3.30;;;;;;;;;;5070013;28;20267;-63
2023/12/20 07:18:07;;;;;;;6.90;3.10;;;;;;;;;;5067616;28;20286;-64
2023/12/20 07:20:34;;;;;;;8.50;2.83;;;;;;;;;;5071391;28;20325;-63
2023/12/20 07:23:01;;;;;;;7.47;3.17;;;;;;;;;;5062740;28;20268;-63
2023/12/20 07:25:30;;;;;;;8.60;2.40;;;;;;;;;;5060367;28;20200;-62
2023/12/20 07:27:58;;;;;;;9.73;2.73;;;;;;;;;;5066719;28;20203;-63
2023/12/20 07:30:26;;;;;;;7.03;2.73;;;;;;;;;;5069821;28;20203;-63
2023/12/20 07:32:53;;;;;;;7.80;2.43;;;;;;;;;;5070157;28;20206;-63
2023/12/20 07:35:20;;;;;;;6.73;2.57;;;;;;;;;;5061438;28;20242;-62
2023/12/20 07:37:48;;;;;;;11.50;2.97;;;;;;;;;;5066888;28;20211;-62
2023/12/20 07:40:17;;;;;;;7.40;2.73;;;;;;;;;;5064502;28;20210;-62
2023/12/20 07:42:44;;;;;;;8.30;2.80;;;;;;;;;;5062834;28;20234;-62
2023/12/20 07:45:13;;;;;;;9.70;2.90;;;;;;;;;;5067537;28;20199;-63
2023/12/20 07:47:40;;;;;;;9.43;2.80;;;;;;;;;;5053445;28;20207;-62
2023/12/20 07:50:08;;;;;;;8.47;3.13;;;;;;;;;;5057900;28;20214;-62
2023/12/20 07:52:35;;;;;;;6.47;2.57;;;;;;;;;;5051780;28;20214;-62
2023/12/20 07:55:02;;;;;;;8.50;2.83;;;;;;;;;;5063013;28;20235;-62
2023/12/20 07:57:30;;;;;;;10.70;3.00;;;;;;;;;;5052859;28;20230;-62
2023/12/20 07:59:57;;;;;;;4.83;2.50;;;;;;;;;;5055410;28;20205;-62
2023/12/20 08:02:26;;;;;;;9.53;2.77;;;;;;;;;;5051800;28;20200;-63
2023/12/20 08:04:53;;;;;;;9.83;2.93;;;;;;;;;;5058810;28;20201;-62
2023/12/20 08:07:20;;;;;;;9.23;3.23;;;;;;;;;;5054446;28;20217;-62
2023/12/20 08:09:47;;;;;;;7.17;2.73;;;;;;;;;;5049977;28;20200;-62
2023/12/20 08:12:15;;;;;;;10.00;3.40;;;;;;;;;;5052337;28;20214;-62
2023/12/20 08:14:42;;;;;;;8.33;2.57;;;;;;;;;;5050605;28;20238;-62
2023/12/20 08:17:09;;;;;;;9.77;3.27;;;;;;;;;;5048101;28;20205;-62
2023/12/20 08:19:38;;;;;;;9.40;2.90;;;;;;;;;;5053633;28;20214;-62
2023/12/20 08:22:05;;;;;;;8.77;3.50;;;;;;;;;;5057970;28;20203;-63
2023/12/20 08:24:32;;;;;;;8.80;3.13;;;;;;;;;;5054605;28;20199;-62
2023/12/20 08:26:59;;;;;;;11.57;3.47;;;;;;;;;;5049713;28;20202;-63
2023/12/20 08:29:26;;;;;;;7.07;3.07;;;;;;;;;;5058975;28;20226;-62
2023/12/20 08:31:54;;;;;;;11.93;3.73;;;;;;;;;;5054061;28;20204;-61
2023/12/20 08:34:21;;;;;;;10.67;3.60;;;;;;;;;;5053604;28;20286;-63
2023/12/20 08:36:50;;;;;;;8.20;3.43;;;;;;;;;;5053874;28;20203;-63
2023/12/20 08:39:17;;;;;;;9.60;3.40;;;;;;;;;;5047718;28;20202;-64
2023/12/20 08:41:44;;;;;;;10.93;3.80;;;;;;;;;;5056245;28;20209;-63
2023/12/20 08:44:11;;;;;;;7.47;3.30;;;;;;;;;;5042703;28;20230;-64
2023/12/20 08:46:38;;;;;;;8.80;4.10;;;;;;;;;;5050423;28;20199;-64
2023/12/20 08:49:05;;;;;;;9.27;4.00;;;;;;;;;;5049005;28;20206;-64
2023/12/20 08:51:33;;;;;;;11.37;4.07;;;;;;;;;;5050249;28;20200;-63
2023/12/20 08:54:02;;;;;;;9.13;3.90;;;;;;;;;;5051999;28;20208;-62
2023/12/20 08:56:29;;;;;;;8.93;3.77;;;;;;;;;;5049904;28;20310;-63
2023/12/20 08:58:56;;;;;;;10.43;4.00;;;;;;;;;;5043755;28;20482;-62
2023/12/20 09:01:23;;;;;;;7.73;3.87;;;;;;;;;;5051656;28;20225;-62
2023/12/20 09:03:53;;;;;;;10.63;3.90;;;;;;;;;;5050122;28;20204;-62
2023/12/20 09:06:21;;;;;;;10.47;4.30;;;;;;;;;;5051255;28;20195;-63
2023/12/20 09:08:48;;;;;;;11.63;4.50;;;;;;;;;;5050015;28;20203;-62
2023/12/20 09:11:17;;;;;;;13.10;4.00;;;;;;;;;;5047888;28;20208;-63
2023/12/20 09:13:44;;;;;;;9.13;3.87;;;;;;;;;;5055023;28;20206;-62
2023/12/20 09:16:12;;;;;;;12.03;4.20;;;;;;;;;;5049487;28;20219;-63
2023/12/20 09:18:40;;;;;;;9.57;4.07;;;;;;;;;;5046895;28;20200;-63
2023/12/20 09:21:08;;;;;;;15.53;4.07;;;;;;;;;;5047931;28;20192;-64
2023/12/20 09:23:36;;;;;;;16.83;4.53;;;;;;;;;;5047787;28;20200;-64
2023/12/20 09:26:06;;;;;;;10.00;3.50;;;;;;;;;;5048680;28;20208;-63
2023/12/20 09:28:36;;;;;;;10.23;3.80;;;;;;;;;;5048502;28;20202;-62
2023/12/20 09:31:05;;;;;;;13.43;4.30;;;;;;;;;;5049952;28;20208;-67
2023/12/20 09:33:32;;;;;;;10.27;4.10;;;;;;;;;;5048011;28;20208;-68
2023/12/20 09:36:00;;;;;;;9.53;3.80;;;;;;;;;;5048772;28;20346;-68
2023/12/20 09:38:27;;;;;;;9.77;3.80;;;;;;;;;;5047224;28;20227;-67
2023/12/20 09:40:55;;;;;;;9.70;3.80;;;;;;;;;;5046441;28;20203;-68
2023/12/20 09:43:25;;;;;;;9.83;3.77;;;;;;;;;;5050495;28;20196;-68
2023/12/20 09:45:54;;;;;;;8.70;3.23;;;;;;;;;;5044363;28;20253;-67
2023/12/20 09:48:22;;;;;;;7.20;3.60;;;;;;;;;;5049301;28;20214;-68
2023/12/20 09:50:49;;;;;;;9.83;4.10;;;;;;;;;;5051995;28;20199;-68
2023/12/20 09:53:17;;;;;;;11.37;3.93;;;;;;;;;;5047490;28;20214;-67
2023/12/20 09:55:44;;;;;;;12.60;4.13;;;;;;;;;;5049983;28;20230;-67
2023/12/20 09:58:11;;;;;;;8.00;3.70;;;;;;;;;;5050486;28;20199;-68
2023/12/20 10:00:38;;;;;;;9.80;4.10;;;;;;;;;;5050941;28;20195;-68
2023/12/20 10:03:08;;;;;;;10.60;3.80;;;;;;;;;;5052033;28;20204;-68
2023/12/20 10:05:35;;;;;;;11.50;3.60;;;;;;;;;;5047580;28;20242;-67
2023/12/20 10:08:03;;;;;;;10.80;3.93;;;;;;;;;;5048190;28;20207;-67
2023/12/20 10:10:30;;;;;;;14.90;7.63;;;;;;;;;;5055621;28;20199;-68
2023/12/20 10:13:05;;;;;;;10.13;3.60;;;;;;;;;;5047686;28;20204;-67
2023/12/20 10:15:32;;;;;;;11.47;3.63;;;;;;;;;;5047853;28;20227;-68
2023/12/20 10:17:59;;;;;;;8.00;3.53;;;;;;;;;;5052489;28;20202;-68
2023/12/20 10:20:28;;;;;;;8.97;2.90;;;;;;;;;;5045042;28;20216;-67
2023/12/20 10:22:56;;;;;;;8.83;3.27;;;;;;;;;;5048167;28;20218;-68
2023/12/20 10:25:23;;;;;;;9.00;3.33;;;;;;;;;;5048806;28;20200;-68
2023/12/20 10:27:51;;;;;;;8.87;3.40;;;;;;;;;;5048633;28;20203;-68
2023/12/20 10:30:18;;;;;;;7.20;3.10;;;;;;;;;;5048760;28;20195;-68
2023/12/20 10:32:45;;;;;;;6.07;2.80;;;;;;;;;;5048457;28;20263;-68
2023/12/20 10:35:12;;;;;;;9.33;3.30;;;;;;;;;;5044991;28;20239;-68
2023/12/20 10:37:41;;;;;;;8.73;3.10;;;;;;;;;;5048450;28;20203;-68
2023/12/20 10:40:09;;;;;;;6.63;2.33;;;;;;;;;;5050325;28;20210;-68
2023/12/20 10:42:37;;;;;;;11.13;2.73;;;;;;;;;;5046562;28;20211;-63
2023/12/20 10:45:04;;;;;;;8.47;2.70;;;;;;;;;;5051247;28;20266;-63
2023/12/20 10:47:32;;;;;;;11.33;2.90;;;;;;;;;;5046429;28;20206;-62
2023/12/20 10:50:01;;;;;;;11.43;3.77;;;;;;;;;;5046794;28;20261;-64
2023/12/20 10:52:29;;;;;;;10.07;3.10;;;;;;;;;;5053177;28;20215;-64
2023/12/20 10:54:58;;;;;;;6.83;2.60;;;;;;;;;;5051954;28;20232;-62
2023/12/20 10:57:29;;;;;;;7.90;2.20;;;;;;;;;;5046134;28;20223;-62
2023/12/20 10:59:57;;;;;;;7.40;2.43;;;;;;;;;;5046776;28;20207;-62
2023/12/20 11:02:26;;;;;;;8.20;2.37;;;;;;;;;;5049183;28;20199;-62
2023/12/20 11:04:57;;;;;;;6.73;2.27;;;;;;;;;;5047542;28;20212;-62
2023/12/20 11:07:27;;;;;;;9.13;2.43;;;;;;;;;;5045094;28;20199;-62
2023/12/20 11:10:01;;;;;;;6.03;2.07;;;;;;;;;;5049587;28;20212;-62
2023/12/20 11:12:33;;;;;;;8.83;2.57;;;;;;;;;;5050547;28;20215;-62
2023/12/20 11:15:04;;;;;;;7.77;2.07;;;;;;;;;;5050160;28;20213;-63
2023/12/20 11:17:31;;;;;;;10.43;2.47;;;;;;;;;;5050212;28;20228;-62
2023/12/20 11:20:13;;;;;;;7.43;2.30;;;;;;;;;;5051489;28;20208;-62
2023/12/20 11:22:41;;;;;;;6.53;2.23;;;;;;;;;;5049638;28;20215;-62
2023/12/20 11:25:11;;;;;;;7.73;2.20;;;;;;;;;;5057078;28;20257;-63
2023/12/20 11:27:41;;;;;;;6.20;2.00;;;;;;;;;;5056688;28;20204;-63
2023/12/20 11:30:09;;;;;;;8.40;2.33;;;;;;;;;;5053874;28;20203;-62
2023/12/20 11:32:37;;;;;;;9.77;2.70;;;;;;;;;;5047881;28;20199;-63
2023/12/20 11:35:19;;;;;;;5.60;1.90;;;;;;;;;;5059633;28;20258;-62
2023/12/20 11:37:47;;;;;;;6.13;2.17;;;;;;;;;;5050998;28;20191;-63
2023/12/20 11:40:17;;;;;;;7.90;2.40;;;;;;;;;;5050758;28;20214;-62
2023/12/20 11:42:45;;;;;;;6.63;2.40;;;;;;;;;;5055766;28;20230;-62
2023/12/20 11:45:15;;;;;;;6.03;2.00;;;;;;;;;;5056927;28;20203;-63
2023/12/20 11:47:42;;;;;;;7.93;1.90;;;;;;;;;;5044730;28;20199;-62
2023/12/20 11:50:10;;;;;;;8.07;2.10;;;;;;;;;;5052718;28;20203;-62
2023/12/20 11:52:37;;;;;;;10.53;2.00;;;;;;;;;;5055919;28;20291;-68
2023/12/20 11:55:04;;;;;;;6.03;2.27;;;;;;;;;;5048437;28;20207;-67
2023/12/20 11:57:32;;;;;;;7.63;2.20;;;;;;;;;;5060712;28;20216;-68
2023/12/20 12:00:00;;;;;;;6.93;2.23;;;;;;;;;;5051693;28;20226;-69
2023/12/20 12:02:27;;;;;;;8.30;2.10;;;;;;;;;;5053179;28;20202;-68
2023/12/20 12:04:55;;;;;;;10.67;2.70;;;;;;;;;;5057423;28;20203;-68
2023/12/20 12:07:22;;;;;;;6.30;2.13;;;;;;;;;;5060845;28;20248;-68
2023/12/20 12:09:49;;;;;;;7.90;1.90;;;;;;;;;;5051140;28;20204;-68
2023/12/20 12:12:16;;;;;;;7.77;2.27;;;;;;;;;;5051550;28;20214;-68
2023/12/20 12:14:45;;;;;;;9.30;2.23;;;;;;;;;;5048850;28;20207;-68
2023/12/20 12:17:12;;;;;;;8.13;2.30;;;;;;;;;;5051337;28;20226;-68
2023/12/20 12:19:40;;;;;;;7.93;2.03;;;;;;;;;;5053471;28;20202;-68
2023/12/20 12:22:10;;;;;;;7.00;2.80;;;;;;;;;;5057761;28;20199;-68
2023/12/20 12:24:37;;;;;;;8.00;2.30;;;;;;;;;;5053425;28;20210;-68
2023/12/20 12:27:04;;;;;;;10.73;2.80;;;;;;;;;;5056699;28;20287;-67
2023/12/20 12:29:32;;;;;;;7.67;2.83;;;;;;;;;;5058154;28;20218;-69
2023/12/20 12:32:00;;;;;;;7.17;2.53;;;;;;;;;;5050349;28;20245;-68
2023/12/20 12:34:29;;;;;;;9.90;2.97;;;;;;;;;;5047996;28;20228;-68
2023/12/20 12:36:56;;;;;;;7.40;2.63;;;;;;;;;;5052140;28;20227;-67
2023/12/20 12:39:25;;;;;;;10.73;2.97;;;;;;;;;;5059114;28;20231;-69
2023/12/20 12:41:52;;;;;;;10.73;2.67;;;;;;;;;;5053064;28;20218;-69
2023/12/20 12:44:19;;;;;;;7.53;2.23;;;;;;;;;;5052458;28;20207;-66
2023/12/20 12:46:47;;;;;;;6.97;2.13;;;;;;;;;;5044904;28;20272;-67
2023/12/20 12:49:15;;;;;;;8.17;2.17;;;;;;;;;;5049566;28;20206;-67
2023/12/20 12:51:42;;;;;;;7.47;2.40;;;;;;;;;;5049405;28;20195;-67
2023/12/20 12:54:10;;;;;;;7.73;2.40;;;;;;;;;;5050118;28;20211;-68
2023/12/20 12:56:37;;;;;;;5.60;2.10;;;;;;;;;;5047885;28;20224;-67
2023/12/20 12:59:05;;;;;;;9.13;2.57;;;;;;;;;;5050461;28;20211;-68
2023/12/20 13:01:32;;;;;;;7.37;2.20;;;;;;;;;;5045779;28;20306;-62
2023/12/20 13:04:01;;;;;;;7.73;2.27;;;;;;;;;;5045837;28;20215;-63
2023/12/20 13:06:29;;;;;;;7.00;2.10;;;;;;;;;;5053099;28;20286;-63
2023/12/20 13:08:56;;;;;;;6.07;2.50;;;;;;;;;;5049607;28;20200;-62
2023/12/20 13:11:25;;;;;;;7.30;2.43;;;;;;;;;;5056121;28;20229;-63
2023/12/20 13:13:52;;;;;;;5.60;2.33;;;;;;;;;;5050611;28;20199;-63
2023/12/20 13:16:19;;;;;;;6.27;2.07;;;;;;;;;;5052728;28;20215;-62
2023/12/20 13:18:46;;;;;;;5.37;1.80;;;;;;;;;;5049590;28;20199;-63
2023/12/20 13:21:13;;;;;;;5.23;1.93;;;;;;;;;;5048661;28;20208;-62
2023/12/20 13:23:41;;;;;;;7.43;2.20;;;;;;;;;;5047345;28;20223;-64
2023/12/20 13:26:09;;;;;;;5.97;2.13;;;;;;;;;;5049258;28;20219;-62
2023/12/20 13:28:36;;;;;;;6.80;2.40;;;;;;;;;;5046684;28;20215;-63
2023/12/20 13:31:03;;;;;;;8.97;2.80;;;;;;;;;;5047417;28;20211;-63
2023/12/20 13:33:30;;;;;;;7.30;2.10;;;;;;;;;;5054706;28;20205;-62
2023/12/20 13:35:58;;;;;;;7.13;2.67;;;;;;;;;;5047389;28;20239;-63
2023/12/20 13:38:25;;;;;;;8.30;2.57;;;;;;;;;;5052189;28;20294;-62
2023/12/20 13:40:53;;;;;;;6.40;2.07;;;;;;;;;;5054686;28;20204;-63
2023/12/20 13:43:21;;;;;;;5.67;1.70;;;;;;;;;;5055225;28;20239;-62
2023/12/20 13:45:48;;;;;;;6.77;2.43;;;;;;;;;;5054542;28;20230;-62
2023/12/20 13:48:16;;;;;;;7.07;2.23;;;;;;;;;;5055951;28;20213;-63
2023/12/20 13:50:43;;;;;;;5.87;2.37;;;;;;;;;;5054721;28;20203;-62
2023/12/20 13:53:10;;;;;;;5.80;1.90;;;;;;;;;;5049908;28;20210;-62
2023/12/20 13:55:37;;;;;;;6.60;2.13;;;;;;;;;;5050967;28;20214;-62
2023/12/20 13:58:06;;;;;;;6.00;2.30;;;;;;;;;;5051698;28;20228;-61
2023/12/20 14:00:33;;;;;;;8.40;2.57;;;;;;;;;;5053790;28;20206;-62
2023/12/20 14:03:00;;;;;;;6.87;2.23;;;;;;;;;;5046976;28;20295;-62
2023/12/20 14:05:28;;;;;;;4.80;2.23;;;;;;;;;;5052083;28;20205;-62
2023/12/20 14:07:57;;;;;;;5.53;2.33;;;;;;;;;;5049034;28;20196;-63
2023/12/20 14:10:26;;;;;;;5.60;2.20;;;;;;;;;;5047506;28;20203;-63
2023/12/20 14:12:53;;;;;;;9.47;2.97;;;;;;;;;;5050919;28;20223;-67
2023/12/20 14:15:25;;;;;;;6.97;2.00;;;;;;;;;;5055772;28;20199;-66
2023/12/20 14:17:52;;;;;;;8.60;2.73;;;;;;;;;;5052435;28;20223;-67
2023/12/20 14:20:20;;;;;;;7.90;2.53;;;;;;;;;;5055392;28;20218;-67
2023/12/20 14:22:47;;;;;;;7.23;2.60;;;;;;;;;;5047709;28;20209;-67
2023/12/20 14:25:15;;;;;;;8.00;2.57;;;;;;;;;;5050571;28;20214;-67
2023/12/20 14:27:43;;;;;;;5.93;2.37;;;;;;;;;;5051926;28;20210;-68
2023/12/20 14:30:13;;;;;;;8.63;3.27;;;;;;;;;;5047384;28;20199;-67
2023/12/20 14:32:42;;;;;;;7.33;2.30;;;;;;;;;;5046899;28;20286;-69
2023/12/20 14:35:09;;;;;;;7.80;2.50;;;;;;;;;;5050692;28;20257;-67
2023/12/20 14:37:38;;;;;;;9.40;2.50;;;;;;;;;;5053973;28;20226;-67
2023/12/20 14:40:06;;;;;;;7.60;2.40;;;;;;;;;;5048841;28;20228;-67
2023/12/20 14:42:33;;;;;;;7.53;2.23;;;;;;;;;;5051958;28;20195;-67
2023/12/20 14:45:00;;;;;;;7.33;2.40;;;;;;;;;;5052366;28;20199;-68
2023/12/20 14:47:27;;;;;;;7.97;2.40;;;;;;;;;;5047958;28;20195;-67